createdAt,value
2023-03-29T00:03:06.474Z,-1.00
2023-03-29T00:06:14.882Z,-1.00
2023-03-29T00:09:38.901Z,-1.00
2023-03-29T00:12:44.294Z,-1.00
2023-03-29T00:15:55.438Z,-1.00
2023-03-29T00:19:26.066Z,-1.00
2023-03-29T00:22:33.359Z,-1.00
2023-03-29T00:25:28.844Z,-1.00
2023-03-29T00:28:31.779Z,-1.00
2023-03-29T00:31:23.478Z,-1.00
2023-03-29T00:34:10.198Z,-1.00
2023-03-29T00:37:08.137Z,-1.00
2023-03-29T00:40:15.804Z,-1.00
2023-03-29T00:43:35.300Z,-1.00
2023-03-29T00:46:42.978Z,-1.00
2023-03-29T00:49:59.674Z,-1.00
2023-03-29T00:53:26.562Z,-1.00
2023-03-29T00:56:53.595Z,-1.00
2023-03-29T01:00:09.663Z,-1.00
2023-03-29T01:07:42.174Z,-1.00
2023-03-29T01:11:34.068Z,-1.00
2023-03-29T01:15:36.209Z,-1.00
2023-03-29T01:19:30.055Z,-1.00
2023-03-29T01:23:38.242Z,-1.00
2023-03-29T01:27:49.165Z,-1.00
2023-03-29T01:31:37.232Z,-1.00
2023-03-29T01:35:45.073Z,-1.00
2023-03-29T01:39:41.192Z,-1.00
2023-03-29T01:43:46.076Z,-1.00
2023-03-29T01:47:48.215Z,-1.00
2023-03-29T01:51:30.038Z,-1.00
2023-03-29T01:55:32.144Z,-1.00
2023-03-29T01:59:27.039Z,-1.00
2023-03-29T02:03:26.242Z,-1.00
2023-03-29T02:07:22.143Z,-1.00
2023-03-29T02:11:15.183Z,-1.00
2023-03-29T02:15:11.059Z,-1.00
2023-03-29T02:19:03.146Z,-1.00
2023-03-29T02:23:13.113Z,-1.00
2023-03-29T02:27:14.237Z,-1.00
2023-03-29T02:30:56.054Z,-1.00
2023-03-29T02:34:56.095Z,-1.00
2023-03-29T02:38:52.089Z,-1.00
2023-03-29T02:42:57.092Z,-1.00
2023-03-29T02:46:48.087Z,-1.00
2023-03-29T02:50:55.141Z,-1.00
2023-03-29T02:55:02.046Z,-1.00
2023-03-29T02:58:54.134Z,-1.00
2023-03-29T03:03:01.325Z,-1.00
2023-03-29T03:07:03.254Z,-1.00
2023-03-29T03:10:47.566Z,-1.00
2023-03-29T03:15:01.227Z,-1.00
2023-03-29T03:18:55.028Z,-1.00
2023-03-29T03:22:50.121Z,-1.00
2023-03-29T03:26:46.017Z,-1.00
2023-03-29T03:30:39.179Z,-1.00
2023-03-29T03:34:34.959Z,-1.00
2023-03-29T03:38:27.190Z,-1.00
2023-03-29T03:42:24.038Z,-1.00
2023-03-29T03:46:22.169Z,-1.00
2023-03-29T03:50:31.030Z,-1.00
2023-03-29T03:54:24.134Z,-1.00
2023-03-29T03:58:24.997Z,-1.00
2023-03-29T04:02:33.244Z,-1.00
2023-03-29T04:06:34.946Z,-1.00
2023-03-29T04:10:31.097Z,-1.00
2023-03-29T04:14:24.008Z,-1.00
2023-03-29T04:18:31.286Z,-1.00
2023-03-29T04:22:29.991Z,-1.00
2023-03-29T04:26:37.165Z,-1.00
2023-03-29T04:30:41.955Z,-1.00
2023-03-29T04:38:40.070Z,-1.00
2023-03-29T04:42:41.994Z,-1.00
2023-03-29T04:50:50.115Z,-1.00
2023-03-29T04:54:48.013Z,-1.00
2023-03-29T04:58:50.119Z,-1.00
2023-03-29T05:02:43.044Z,-1.00
2023-03-29T05:06:21.130Z,-1.00
2023-03-29T05:10:17.291Z,-1.00
2023-03-29T05:14:11.140Z,-1.00
2023-03-29T05:18:10.020Z,-1.00
2023-03-29T05:26:07.150Z,-1.00
2023-03-29T05:30:08.025Z,-1.00
2023-03-29T05:38:22.123Z,-1.00
2023-03-29T05:42:15.928Z,-1.00
2023-03-29T05:46:09.166Z,-1.00
2023-03-29T05:50:01.951Z,-1.00
2023-03-29T05:53:52.131Z,-1.00
2023-03-29T05:57:44.920Z,-1.00
2023-03-29T06:01:41.149Z,-1.00
2023-03-29T06:05:35.928Z,-1.00
2023-03-29T06:09:28.117Z,-1.00
2023-03-29T06:13:23.942Z,-1.00
2023-03-29T06:17:15.153Z,-1.00
2023-03-29T06:21:13.962Z,-1.00
2023-03-29T06:25:07.139Z,-1.00
2023-03-29T06:28:58.984Z,-1.00
2023-03-29T06:32:57.171Z,-1.00
2023-03-29T06:37:13.942Z,-1.00
2023-03-29T06:56:57.162Z,60.21
2023-03-29T07:01:20.597Z,60.29
2023-03-29T07:05:50.829Z,60.25
2023-03-29T07:10:06.157Z,59.68
2023-03-29T07:14:10.303Z,59.50
2023-03-29T07:18:10.203Z,59.76
2023-03-29T07:22:11.400Z,59.85
2023-03-29T07:27:56.939Z,58.66
2023-03-29T07:31:56.717Z,59.67
2023-03-29T07:36:02.873Z,58.57
2023-03-29T07:40:02.737Z,57.80
2023-03-29T07:44:36.523Z,57.32
2023-03-29T07:48:31.419Z,56.46
2023-03-29T07:52:28.540Z,56.80
2023-03-29T07:56:15.426Z,54.14
2023-03-29T08:00:52.136Z,53.86
2023-03-29T08:04:50.883Z,52.80
2023-03-29T08:09:03.038Z,51.58
2023-03-29T08:12:54.883Z,50.95
2023-03-29T08:16:55.117Z,50.38
2023-03-29T08:20:49.914Z,49.71
2023-03-29T08:24:44.059Z,49.60
2023-03-29T08:28:32.860Z,48.68
2023-03-29T08:32:28.183Z,47.23
2023-03-29T08:36:27.895Z,47.60
2023-03-29T08:40:54.394Z,49.82
2023-03-29T08:45:22.114Z,46.56
2023-03-29T08:49:32.273Z,46.86
2023-03-29T08:53:26.118Z,48.87
2023-03-29T08:57:26.367Z,47.48
2023-03-29T09:01:24.265Z,45.06
2023-03-29T09:05:21.252Z,46.50
2023-03-29T09:09:19.112Z,46.08
2023-03-29T09:13:41.259Z,43.84
2023-03-29T09:17:33.123Z,44.23
2023-03-29T09:21:33.370Z,44.46
2023-03-29T09:25:27.083Z,44.89
2023-03-29T09:29:28.267Z,17.31
2023-03-29T09:33:26.059Z,-1.00
2023-03-29T09:37:26.339Z,-1.00
2023-03-29T09:41:23.078Z,-1.00
2023-03-29T09:45:23.345Z,-1.00
2023-03-29T09:49:24.116Z,-1.00
2023-03-29T09:53:21.243Z,-1.00
2023-03-29T09:57:17.117Z,-1.00
2023-03-29T10:01:15.361Z,-1.00
2023-03-29T10:05:11.097Z,-1.00
2023-03-29T10:09:15.386Z,-1.00
2023-03-29T20:32:00.812Z,48.81
2023-03-29T20:36:24.499Z,49.09
2023-03-29T20:48:46.364Z,49.95
2023-03-29T20:53:12.775Z,49.80
2023-03-29T20:57:11.897Z,49.92
2023-03-29T21:01:06.090Z,50.11
2023-03-29T21:05:07.003Z,50.59
2023-03-29T21:09:40.397Z,51.29
2023-03-29T21:13:40.363Z,51.09
2023-03-29T21:17:40.583Z,51.32
2023-03-29T21:21:40.345Z,51.38
2023-03-29T21:25:35.530Z,51.82
2023-03-29T21:29:34.404Z,51.48
2023-03-29T21:33:24.485Z,51.66
2023-03-29T21:37:27.335Z,51.92
2023-03-29T21:41:22.599Z,51.32
2023-03-29T21:45:14.382Z,52.35
2023-03-29T21:49:09.525Z,51.96
2023-03-29T21:53:01.364Z,51.77
2023-03-29T21:56:55.619Z,51.58
2023-03-29T22:00:50.360Z,51.60
2023-03-29T22:04:41.528Z,51.71
2023-03-29T22:08:34.304Z,51.66
2023-03-29T22:12:31.471Z,51.71
2023-03-29T22:16:33.369Z,52.73
2023-03-29T22:20:30.442Z,51.63
2023-03-29T22:24:22.346Z,51.30
2023-03-29T22:28:16.435Z,51.38
2023-03-29T22:32:13.399Z,51.51
2023-03-29T22:36:10.456Z,51.67
2023-03-29T22:40:03.313Z,51.75
2023-03-29T22:43:59.579Z,51.85
2023-03-29T22:47:56.358Z,51.87
2023-03-29T22:51:54.523Z,52.44
2023-03-29T22:55:49.286Z,51.76
2023-03-29T22:59:44.484Z,51.78
2023-03-29T23:03:38.332Z,52.05
2023-03-29T23:07:31.507Z,52.19
2023-03-29T23:11:26.334Z,52.02
2023-03-29T23:15:21.504Z,52.61
2023-03-29T23:19:15.345Z,52.40
2023-03-29T23:23:13.453Z,52.33
2023-03-29T23:27:08.268Z,52.28
2023-03-29T23:31:04.789Z,52.99
2023-03-29T23:34:57.286Z,52.71
2023-03-29T23:38:54.560Z,52.33
2023-03-29T23:42:46.310Z,52.75
2023-03-29T23:46:42.601Z,52.72
2023-03-29T23:50:37.257Z,53.20
2023-03-29T23:54:34.457Z,52.77
2023-03-29T23:58:31.316Z,52.95
